createdAt,value
2024-04-09T00:01:21.978Z,16.73
2024-04-09T00:03:49.222Z,16.55
2024-04-09T00:06:16.562Z,16.35
2024-04-09T00:08:46.649Z,16.25
2024-04-09T00:11:24.023Z,16.06
2024-04-09T00:13:52.489Z,15.89
2024-04-09T00:16:26.815Z,15.68
2024-04-09T00:18:56.529Z,15.60
2024-04-09T00:21:24.753Z,15.60
2024-04-09T00:23:52.099Z,15.52
2024-04-09T00:26:18.757Z,15.52
2024-04-09T00:28:45.765Z,15.58
2024-04-09T00:31:12.376Z,15.55
2024-04-09T00:33:39.846Z,15.46
2024-04-09T00:36:06.982Z,15.34
2024-04-09T00:38:34.314Z,15.31
2024-04-09T00:41:00.904Z,15.24
2024-04-09T00:43:27.702Z,15.17
2024-04-09T00:45:56.774Z,15.11
2024-04-09T00:48:23.858Z,15.15
2024-04-09T00:50:52.171Z,15.10
2024-04-09T00:53:19.995Z,15.20
2024-04-09T00:55:50.774Z,15.32
2024-04-09T00:58:19.375Z,15.12
2024-04-09T01:00:46.132Z,14.97
2024-04-09T01:03:13.801Z,14.79
2024-04-09T01:05:40.869Z,14.79
2024-04-09T01:08:07.498Z,14.88
2024-04-09T01:10:34.115Z,14.91
2024-04-09T01:13:00.769Z,14.88
2024-04-09T01:15:27.578Z,15.03
2024-04-09T01:17:54.273Z,15.25
2024-04-09T01:20:21.994Z,15.42
2024-04-09T01:22:48.594Z,15.30
2024-04-09T01:25:16.037Z,15.22
2024-04-09T01:27:42.802Z,15.24
2024-04-09T01:30:10.769Z,15.24
2024-04-09T01:32:40.978Z,15.28
2024-04-09T01:35:08.269Z,15.36
2024-04-09T01:37:35.494Z,15.46
2024-04-09T01:40:03.269Z,15.64
2024-04-09T01:42:30.097Z,15.55
2024-04-09T01:44:56.936Z,15.81
2024-04-09T01:47:23.624Z,15.92
2024-04-09T01:49:50.209Z,15.80
2024-04-09T01:52:16.972Z,15.76
2024-04-09T01:54:48.557Z,15.76
2024-04-09T01:57:15.752Z,15.76
2024-04-09T01:59:42.707Z,15.64
2024-04-09T02:02:10.385Z,15.55
2024-04-09T02:04:37.052Z,15.52
2024-04-09T02:07:03.934Z,15.63
2024-04-09T02:09:30.517Z,15.55
2024-04-09T02:11:57.160Z,15.48
2024-04-09T02:14:24.071Z,15.39
2024-04-09T02:16:51.609Z,15.30
2024-04-09T02:19:18.185Z,15.25
2024-04-09T02:21:44.764Z,15.25
2024-04-09T02:24:11.447Z,15.21
2024-04-09T02:26:38.037Z,15.42
2024-04-09T02:29:04.577Z,15.71
2024-04-09T02:31:31.216Z,15.82
2024-04-09T02:33:57.981Z,15.84
2024-04-09T02:36:24.639Z,15.80
2024-04-09T02:38:51.286Z,15.80
2024-04-09T02:41:18.489Z,16.52
2024-04-09T02:43:45.429Z,16.52
2024-04-09T02:46:11.994Z,16.34
2024-04-09T02:48:38.662Z,16.28
2024-04-09T02:51:06.581Z,16.33
2024-04-09T02:53:36.461Z,16.46
2024-04-09T02:56:08.354Z,16.57
2024-04-09T02:58:36.136Z,16.58
2024-04-09T03:01:08.153Z,17.28
2024-04-09T03:03:36.552Z,17.57
2024-04-09T03:06:08.703Z,18.03
2024-04-09T03:08:36.033Z,17.97
2024-04-09T03:11:02.951Z,18.06
2024-04-09T03:13:29.543Z,18.13
2024-04-09T03:15:56.672Z,18.23
2024-04-09T03:18:23.395Z,18.23
2024-04-09T03:20:58.878Z,18.07
2024-04-09T03:23:25.531Z,18.07
2024-04-09T03:25:52.080Z,18.00
2024-04-09T03:28:18.623Z,17.86
2024-04-09T03:30:45.246Z,17.70
2024-04-09T03:33:11.907Z,17.53
2024-04-09T03:35:38.721Z,17.31
2024-04-09T03:38:05.278Z,17.26
2024-04-09T03:40:33.167Z,17.42
2024-04-09T03:42:59.795Z,17.76
2024-04-09T03:45:27.438Z,18.09
2024-04-09T03:47:54.152Z,18.45
2024-04-09T03:50:20.776Z,18.55
2024-04-09T03:52:47.420Z,18.46
2024-04-09T03:55:14.059Z,18.31
2024-04-09T03:57:41.751Z,18.29
2024-04-09T04:00:13.188Z,18.21
2024-04-09T04:02:40.528Z,18.13
2024-04-09T04:05:07.322Z,18.02
2024-04-09T04:07:33.887Z,17.90
2024-04-09T04:10:00.516Z,17.82
2024-04-09T04:12:27.184Z,17.64
2024-04-09T04:14:53.814Z,17.57
2024-04-09T04:17:20.607Z,17.44
2024-04-09T04:19:47.294Z,17.37
2024-04-09T04:22:14.319Z,17.29
2024-04-09T04:24:41.097Z,17.20
2024-04-09T04:27:08.273Z,17.05
2024-04-09T04:29:35.255Z,16.98
2024-04-09T04:32:01.813Z,16.88
2024-04-09T04:34:28.534Z,16.86
2024-04-09T04:36:55.276Z,16.75
2024-04-09T04:39:22.090Z,16.70
2024-04-09T04:41:48.699Z,16.59
2024-04-09T04:44:15.327Z,16.49
2024-04-09T04:46:42.261Z,16.45
2024-04-09T04:49:09.045Z,16.35
2024-04-09T04:51:35.677Z,16.28
2024-04-09T04:54:02.415Z,16.17
2024-04-09T04:56:29.027Z,16.15
2024-04-09T04:58:55.640Z,16.01
2024-04-09T05:01:22.288Z,15.92
2024-04-09T05:03:49.014Z,15.83
2024-04-09T05:06:15.647Z,15.80
2024-04-09T05:08:42.314Z,15.81
2024-04-09T05:11:12.035Z,15.73
2024-04-09T05:13:38.649Z,15.60
2024-04-09T05:16:05.442Z,15.56
2024-04-09T05:18:32.273Z,15.52
2024-04-09T05:20:59.085Z,15.52
2024-04-09T05:23:25.709Z,15.46
2024-04-09T05:25:52.455Z,15.37
2024-04-09T05:28:19.009Z,15.31
2024-04-09T05:30:45.772Z,15.32
2024-04-09T05:33:12.525Z,15.28
2024-04-09T05:35:39.168Z,15.26
2024-04-09T05:38:06.058Z,15.26
2024-04-09T05:40:35.037Z,15.28
2024-04-09T05:43:01.607Z,15.24
2024-04-09T05:45:28.231Z,15.16
2024-04-09T05:47:55.832Z,15.25
2024-04-09T05:50:22.500Z,15.23
2024-04-09T05:52:49.058Z,15.07
2024-04-09T05:55:15.792Z,15.07
2024-04-09T05:57:43.264Z,15.04
2024-04-09T06:00:16.126Z,15.12
2024-04-09T06:02:47.172Z,15.20
2024-04-09T06:05:17.297Z,15.24
2024-04-09T06:07:45.665Z,15.22
2024-04-09T06:10:15.589Z,15.18
2024-04-09T06:12:42.574Z,15.08
2024-04-09T06:15:09.299Z,15.03
2024-04-09T06:17:36.050Z,15.01
2024-04-09T06:20:03.171Z,15.02
2024-04-09T06:22:29.791Z,15.21
2024-04-09T06:24:56.376Z,15.45
2024-04-09T06:27:23.162Z,15.64
2024-04-09T06:29:49.794Z,15.92
2024-04-09T06:32:16.486Z,15.74
2024-04-09T06:34:43.674Z,15.88
2024-04-09T06:37:10.524Z,15.62
2024-04-09T06:39:37.496Z,15.58
2024-04-09T06:42:04.939Z,15.23
2024-04-09T06:44:32.698Z,15.47
2024-04-09T06:46:59.707Z,15.15
2024-04-09T06:49:26.614Z,15.04
2024-04-09T06:51:53.225Z,15.03
2024-04-09T06:54:19.935Z,15.00
2024-04-09T06:56:46.572Z,14.93
2024-04-09T06:59:13.154Z,14.84
2024-04-09T07:01:39.930Z,14.84
2024-04-09T07:04:06.647Z,14.77
2024-04-09T07:06:33.504Z,14.72
2024-04-09T07:09:04.312Z,14.59
2024-04-09T07:11:31.004Z,14.33
2024-04-09T07:13:57.878Z,14.22
2024-04-09T07:16:24.915Z,14.23
2024-04-09T07:18:51.695Z,13.96
2024-04-09T07:21:19.243Z,13.79
2024-04-09T07:23:47.322Z,13.69
2024-04-09T07:26:14.983Z,13.55
2024-04-09T07:28:41.634Z,13.45
2024-04-09T07:31:09.583Z,13.27
2024-04-09T07:33:36.505Z,12.76
2024-04-09T07:36:04.541Z,12.73
2024-04-09T07:38:31.543Z,12.56
2024-04-09T07:40:58.140Z,12.61
2024-04-09T07:43:24.779Z,12.29
2024-04-09T07:45:54.794Z,11.87
2024-04-09T07:48:22.487Z,11.49
2024-04-09T07:50:49.342Z,11.26
2024-04-09T07:53:16.946Z,11.36
2024-04-09T07:55:43.548Z,11.23
2024-04-09T07:58:10.801Z,11.32
2024-04-09T08:00:38.073Z,11.20
2024-04-09T08:03:05.385Z,11.16
2024-04-09T08:05:32.751Z,11.31
2024-04-09T08:07:59.834Z,11.35
2024-04-09T08:10:26.888Z,11.21
2024-04-09T08:12:58.788Z,11.40
2024-04-09T08:15:25.479Z,11.32
2024-04-09T08:17:52.303Z,11.36
2024-04-09T08:20:19.176Z,11.25
2024-04-09T08:22:49.206Z,11.30
2024-04-09T08:25:16.910Z,11.23
2024-04-09T08:27:43.680Z,10.75
2024-04-09T08:30:13.816Z,10.72
2024-04-09T08:32:41.751Z,10.65
2024-04-09T08:35:08.808Z,10.51
2024-04-09T08:37:35.529Z,10.69
2024-04-09T08:40:02.806Z,10.36
2024-04-09T08:42:29.569Z,10.51
2024-04-09T08:44:58.745Z,10.51
2024-04-09T08:47:25.859Z,10.53
2024-04-09T08:50:00.379Z,10.51
2024-04-09T08:52:30.502Z,10.20
2024-04-09T08:54:57.237Z,10.21
2024-04-09T08:57:23.970Z,9.98
2024-04-09T08:59:51.268Z,9.85
2024-04-09T09:02:18.316Z,10.02
2024-04-09T09:04:46.809Z,9.72
2024-04-09T09:07:18.358Z,9.63
2024-04-09T09:09:46.021Z,9.53
2024-04-09T09:12:13.108Z,9.42
2024-04-09T09:14:39.955Z,9.30
2024-04-09T09:17:08.430Z,9.27
2024-04-09T09:19:35.591Z,9.29
2024-04-09T09:22:05.864Z,9.20
2024-04-09T09:24:32.708Z,9.18
2024-04-09T09:27:03.858Z,9.39
2024-04-09T09:29:30.979Z,9.53
2024-04-09T09:31:59.346Z,9.23
2024-04-09T09:34:38.664Z,9.10
2024-04-09T09:37:11.354Z,9.34
2024-04-09T09:39:42.092Z,9.29
2024-04-09T09:42:12.178Z,9.16
2024-04-09T09:44:43.526Z,9.33
2024-04-09T09:47:10.171Z,9.23
2024-04-09T09:49:36.987Z,9.27
2024-04-09T09:52:04.469Z,8.95
2024-04-09T09:54:31.269Z,8.87
2024-04-09T09:57:05.376Z,8.85
2024-04-09T09:59:37.836Z,8.52
2024-04-09T10:02:06.445Z,8.74
2024-04-09T10:04:33.284Z,8.63
2024-04-09T10:07:04.816Z,8.75
2024-04-09T10:09:53.275Z,8.85
2024-04-09T10:12:24.865Z,8.97
2024-04-09T10:15:10.784Z,8.92
2024-04-09T10:18:05.052Z,8.85
2024-04-09T10:20:37.054Z,8.72
2024-04-09T10:23:08.277Z,8.38
2024-04-09T10:25:42.941Z,8.15
2024-04-09T10:28:11.873Z,8.24
2024-04-09T10:30:41.222Z,8.28
2024-04-09T10:33:10.151Z,8.59
2024-04-09T10:35:37.346Z,8.55
2024-04-09T10:38:07.870Z,8.55
2024-04-09T10:40:36.153Z,8.43
2024-04-09T10:43:07.245Z,8.54
2024-04-09T10:45:34.337Z,8.32
2024-04-09T10:48:03.126Z,8.42
2024-04-09T10:50:29.879Z,8.38
2024-04-09T10:52:56.593Z,8.50
2024-04-09T10:55:23.302Z,8.41
2024-04-09T10:57:54.280Z,8.48
2024-04-09T11:00:22.974Z,8.45
2024-04-09T11:02:50.196Z,8.49
2024-04-09T11:05:18.987Z,8.36
2024-04-09T11:07:48.189Z,8.26
2024-04-09T11:10:20.487Z,8.12
2024-04-09T11:12:54.527Z,8.25
2024-04-09T11:15:22.486Z,8.14
2024-04-09T11:17:49.404Z,8.25
2024-04-09T11:20:19.628Z,8.34
2024-04-09T11:22:47.970Z,8.12
2024-04-09T11:25:18.539Z,8.31
2024-04-09T11:27:51.605Z,8.51
2024-04-09T11:30:26.107Z,8.59
2024-04-09T11:32:56.811Z,8.54
2024-04-09T11:35:25.143Z,8.73
2024-04-09T11:37:53.654Z,8.78
2024-04-09T11:40:21.427Z,8.86
2024-04-09T11:42:52.820Z,8.84
2024-04-09T11:45:23.725Z,8.63
2024-04-09T11:47:51.056Z,8.63
2024-04-09T11:50:18.682Z,8.56
2024-04-09T11:52:46.365Z,8.75
2024-04-09T11:55:15.118Z,8.55
2024-04-09T11:57:44.695Z,8.35
2024-04-09T12:00:14.872Z,8.52
2024-04-09T12:02:45.151Z,8.62
2024-04-09T12:05:13.686Z,8.64
2024-04-09T12:07:41.356Z,8.58
2024-04-09T12:10:09.239Z,8.56
2024-04-09T12:12:36.747Z,8.70
2024-04-09T12:15:06.809Z,8.78
2024-04-09T12:17:33.983Z,8.92
2024-04-09T12:20:00.706Z,8.97
2024-04-09T12:22:29.833Z,8.83
2024-04-09T12:24:59.956Z,8.83
2024-04-09T12:27:26.770Z,8.82
2024-04-09T12:29:54.095Z,8.70
2024-04-09T12:32:21.553Z,8.84
2024-04-09T12:34:50.168Z,8.76
2024-04-09T12:37:17.163Z,8.87
2024-04-09T12:39:43.870Z,8.82
2024-04-09T12:42:10.886Z,9.01
2024-04-09T12:44:37.554Z,8.69
2024-04-09T12:47:05.289Z,8.75
2024-04-09T12:49:41.852Z,8.81
2024-04-09T12:52:12.694Z,8.85
2024-04-09T12:54:39.611Z,8.95
2024-04-09T12:57:06.522Z,8.75
2024-04-09T12:59:47.863Z,8.73
2024-04-09T13:02:22.808Z,8.85
2024-04-09T13:04:50.642Z,8.89
2024-04-09T13:07:17.596Z,8.93
2024-04-09T13:09:44.600Z,9.06
2024-04-09T13:12:11.384Z,9.05
2024-04-09T13:14:38.029Z,8.96
2024-04-09T13:17:08.173Z,9.15
2024-04-09T13:19:36.612Z,9.10
2024-04-09T13:22:04.005Z,9.01
2024-04-09T13:24:31.037Z,9.08
2024-04-09T13:26:57.788Z,8.98
2024-04-09T13:29:25.563Z,9.13
2024-04-09T13:31:52.608Z,9.04
2024-04-09T13:34:22.889Z,9.01
2024-04-09T13:36:50.480Z,9.07
2024-04-09T13:39:17.181Z,9.09
2024-04-09T13:41:43.877Z,9.29
2024-04-09T13:44:10.593Z,9.46
2024-04-09T13:46:37.217Z,9.43
2024-04-09T13:49:04.264Z,9.36
2024-04-09T13:51:31.102Z,9.57
2024-04-09T13:53:57.854Z,9.71
2024-04-09T13:56:24.508Z,9.50
2024-04-09T13:58:51.164Z,9.48
2024-04-09T14:01:17.907Z,9.58
2024-04-09T14:03:44.707Z,9.51
2024-04-09T14:06:11.717Z,9.63
2024-04-09T14:08:38.867Z,9.57
2024-04-09T14:11:05.808Z,9.60
2024-04-09T14:13:33.137Z,9.62
2024-04-09T14:16:00.057Z,9.41
2024-04-09T14:18:31.388Z,9.66
2024-04-09T14:20:59.880Z,9.64
2024-04-09T14:23:26.709Z,9.87
2024-04-09T14:25:53.528Z,9.72
2024-04-09T14:28:20.221Z,9.70
2024-04-09T14:30:46.932Z,9.60
2024-04-09T14:33:14.426Z,9.68
2024-04-09T14:35:44.366Z,9.97
2024-04-09T14:38:11.138Z,9.91
2024-04-09T14:40:37.874Z,10.09
2024-04-09T14:43:05.050Z,10.39
2024-04-09T14:45:31.912Z,10.34
2024-04-09T14:47:58.833Z,10.36
2024-04-09T14:50:26.266Z,10.09
2024-04-09T14:52:53.177Z,10.23
2024-04-09T14:55:19.846Z,10.22
2024-04-09T14:57:46.621Z,10.39
2024-04-09T15:00:13.943Z,10.33
2024-04-09T15:02:40.877Z,10.45
2024-04-09T15:05:07.772Z,10.47
2024-04-09T15:07:35.667Z,10.09
2024-04-09T15:10:02.532Z,10.23
2024-04-09T15:12:29.173Z,10.12
2024-04-09T15:14:55.993Z,9.76
2024-04-09T15:17:23.715Z,9.74
2024-04-09T15:19:52.473Z,9.65
2024-04-09T15:22:20.706Z,9.63
2024-04-09T15:24:47.293Z,9.77
2024-04-09T15:27:13.925Z,9.97
2024-04-09T15:29:41.641Z,10.04
2024-04-09T15:32:08.476Z,10.07
2024-04-09T15:34:35.306Z,10.06
2024-04-09T15:37:04.047Z,9.89
2024-04-09T15:39:31.239Z,9.68
2024-04-09T15:41:59.560Z,9.89
2024-04-09T15:44:26.965Z,10.13
2024-04-09T15:46:53.693Z,9.96
2024-04-09T15:49:20.455Z,10.05
2024-04-09T15:51:47.115Z,10.00
2024-04-09T15:54:15.304Z,9.88
2024-04-09T15:56:42.352Z,9.99
2024-04-09T15:59:09.005Z,9.80
2024-04-09T16:01:38.152Z,9.92
2024-04-09T16:04:05.031Z,10.06
2024-04-09T16:06:31.957Z,9.87
2024-04-09T16:08:58.567Z,9.84
2024-04-09T16:11:25.401Z,9.82
2024-04-09T16:13:52.164Z,9.95
2024-04-09T16:16:18.857Z,9.74
2024-04-09T16:18:47.752Z,9.61
2024-04-09T16:21:14.712Z,9.57
2024-04-09T16:23:41.710Z,9.52
2024-04-09T16:26:11.310Z,9.57
2024-04-09T16:28:38.301Z,9.49
2024-04-09T16:31:05.189Z,9.44
2024-04-09T16:33:32.882Z,9.51
2024-04-09T16:35:59.673Z,9.52
2024-04-09T16:38:28.860Z,9.58
2024-04-09T16:40:57.516Z,9.55
2024-04-09T16:43:24.166Z,9.56
2024-04-09T16:45:50.840Z,9.58
2024-04-09T16:48:17.557Z,9.32
2024-04-09T16:50:46.661Z,9.21
2024-04-09T16:53:13.785Z,9.35
2024-04-09T16:55:40.851Z,9.31
2024-04-09T16:58:08.652Z,9.23
2024-04-09T17:00:36.760Z,9.15
2024-04-09T17:03:04.085Z,9.11
2024-04-09T17:05:30.852Z,9.06
2024-04-09T17:07:58.499Z,9.04
2024-04-09T17:10:25.396Z,8.93
2024-04-09T17:12:52.012Z,9.00
2024-04-09T17:15:18.766Z,8.88
2024-04-09T17:17:45.516Z,8.88
2024-04-09T17:20:13.126Z,8.89
2024-04-09T17:22:39.852Z,8.87
2024-04-09T17:25:09.657Z,8.86
2024-04-09T17:27:36.536Z,8.83
2024-04-09T17:30:03.999Z,8.82
2024-04-09T17:32:34.404Z,8.66
2024-04-09T17:35:02.080Z,8.72
2024-04-09T17:37:29.655Z,8.64
2024-04-09T17:39:56.290Z,8.59
2024-04-09T17:42:23.862Z,8.59
2024-04-09T17:44:53.729Z,8.59
2024-04-09T17:47:21.771Z,8.65
2024-04-09T17:49:48.966Z,8.55
2024-04-09T17:52:15.721Z,8.66
2024-04-09T17:54:42.399Z,8.56
2024-04-09T17:57:08.962Z,8.52
2024-04-09T17:59:35.931Z,8.43
2024-04-09T18:02:02.963Z,8.45
2024-04-09T18:04:29.717Z,8.32
2024-04-09T18:06:56.511Z,8.27
2024-04-09T18:09:23.145Z,8.20
2024-04-09T18:11:49.863Z,8.20
2024-04-09T18:14:18.665Z,8.23
2024-04-09T18:16:48.701Z,8.15
2024-04-09T18:19:17.180Z,7.98
2024-04-09T18:21:44.216Z,8.00
2024-04-09T18:24:13.150Z,7.93
2024-04-09T18:26:40.361Z,7.96
2024-04-09T18:29:08.588Z,7.96
2024-04-09T18:31:35.509Z,7.93
2024-04-09T18:34:02.209Z,7.88
2024-04-09T18:36:29.283Z,7.83
2024-04-09T18:38:56.434Z,7.86
2024-04-09T18:41:24.531Z,7.93
2024-04-09T18:46:18.030Z,7.90
2024-04-09T18:48:44.724Z,7.88
2024-04-09T18:51:14.880Z,7.85
2024-04-09T18:53:41.565Z,7.83
2024-04-09T18:56:08.568Z,7.76
2024-04-09T18:58:36.258Z,7.78
2024-04-09T19:01:03.282Z,7.79
2024-04-09T19:03:30.030Z,7.80
2024-04-09T19:05:56.714Z,7.76
2024-04-09T19:08:23.727Z,7.73
2024-04-09T19:10:50.516Z,7.76
2024-04-09T19:13:17.122Z,7.76
2024-04-09T19:15:43.703Z,7.73
2024-04-09T19:18:10.495Z,7.77
2024-04-09T19:20:37.404Z,7.75
2024-04-09T19:23:04.318Z,7.88
2024-04-09T19:25:30.990Z,7.81
2024-04-09T19:27:57.610Z,7.79
2024-04-09T19:30:24.174Z,7.79
2024-04-09T19:32:51.464Z,7.71
2024-04-09T19:35:18.251Z,7.73
2024-04-09T19:37:45.273Z,7.68
2024-04-09T19:40:13.463Z,7.67
2024-04-09T19:42:40.236Z,7.66
2024-04-09T19:45:07.477Z,7.62
2024-04-09T19:47:34.458Z,7.62
2024-04-09T19:50:01.537Z,7.67
2024-04-09T19:52:28.330Z,7.70
2024-04-09T19:54:54.933Z,7.64
2024-04-09T19:57:22.063Z,7.64
2024-04-09T19:59:51.223Z,7.64
2024-04-09T20:02:23.862Z,7.54
2024-04-09T20:04:54.295Z,7.61
2024-04-09T20:07:21.934Z,7.57
2024-04-09T20:09:50.049Z,7.57
2024-04-09T20:12:17.395Z,7.54
2024-04-09T20:14:47.950Z,7.58
2024-04-09T20:17:14.760Z,7.59
2024-04-09T20:19:41.472Z,7.55
2024-04-09T20:22:08.645Z,7.57
2024-04-09T20:24:35.390Z,7.62
2024-04-09T20:27:02.160Z,7.58
2024-04-09T20:29:28.963Z,7.56
2024-04-09T20:31:55.666Z,7.51
2024-04-09T20:34:22.542Z,7.53
2024-04-09T20:36:49.320Z,7.61
2024-04-09T20:39:25.083Z,7.61
2024-04-09T20:41:51.808Z,7.57
2024-04-09T20:44:18.859Z,7.50
2024-04-09T20:46:45.506Z,7.55
2024-04-09T20:49:12.304Z,7.51
2024-04-09T20:51:38.946Z,7.53
2024-04-09T20:54:05.866Z,7.49
2024-04-09T20:56:33.466Z,7.47
2024-04-09T20:59:00.469Z,7.52
2024-04-09T21:01:27.226Z,7.46
2024-04-09T21:03:55.393Z,7.46
2024-04-09T21:06:23.924Z,7.50
2024-04-09T21:08:50.479Z,7.48
2024-04-09T21:11:17.166Z,7.52
2024-04-09T21:13:44.086Z,7.50
2024-04-09T21:16:11.837Z,7.56
2024-04-09T21:18:38.540Z,7.50
2024-04-09T21:21:06.168Z,7.58
2024-04-09T21:23:32.898Z,7.52
2024-04-09T21:25:59.492Z,7.60
2024-04-09T21:28:26.087Z,7.66
2024-04-09T21:30:52.729Z,7.57
2024-04-09T21:33:19.752Z,7.60
2024-04-09T21:35:46.411Z,7.59
2024-04-09T21:38:13.010Z,7.66
2024-04-09T21:40:40.020Z,7.53
2024-04-09T21:43:06.703Z,7.55
2024-04-09T21:45:33.311Z,7.53
2024-04-09T21:48:00.132Z,7.50
2024-04-09T21:50:27.019Z,7.51
2024-04-09T21:52:53.673Z,7.52
2024-04-09T21:55:20.276Z,7.48
2024-04-09T21:57:46.844Z,7.54
2024-04-09T22:00:21.324Z,7.52
2024-04-09T22:02:48.650Z,7.57
2024-04-09T22:05:15.380Z,7.56
2024-04-09T22:07:43.179Z,7.49
2024-04-09T22:10:09.881Z,7.49
2024-04-09T22:12:36.511Z,7.50
2024-04-09T22:15:03.225Z,7.53
2024-04-09T22:17:30.016Z,7.52
2024-04-09T22:19:57.525Z,7.55
2024-04-09T22:22:24.227Z,7.52
2024-04-09T22:24:50.884Z,7.47
2024-04-09T22:27:17.453Z,7.46
2024-04-09T22:29:44.056Z,7.47
2024-04-09T22:32:12.121Z,7.46
2024-04-09T22:34:39.109Z,7.44
2024-04-09T22:37:05.734Z,7.40
2024-04-09T22:39:32.385Z,7.58
2024-04-09T22:41:59.038Z,7.55
2024-04-09T22:44:25.978Z,7.45
2024-04-09T22:46:54.798Z,7.47
2024-04-09T22:49:21.626Z,7.49
2024-04-09T22:51:48.357Z,7.50
2024-04-09T22:54:18.070Z,7.51
2024-04-09T22:56:45.029Z,7.52
2024-04-09T22:59:11.821Z,7.55
2024-04-09T23:01:38.489Z,7.50
2024-04-09T23:04:05.246Z,7.53
2024-04-09T23:06:31.901Z,7.62
2024-04-09T23:08:58.450Z,7.64
2024-04-09T23:11:25.326Z,7.63
2024-04-09T23:13:51.992Z,7.67
2024-04-09T23:16:19.997Z,7.58
2024-04-09T23:18:46.897Z,7.58
2024-04-09T23:21:13.532Z,7.50
2024-04-09T23:23:40.237Z,7.55
2024-04-09T23:26:06.984Z,7.57
2024-04-09T23:28:33.698Z,7.50
2024-04-09T23:31:00.276Z,7.18
2024-04-09T23:33:26.983Z,7.05
2024-04-09T23:35:53.586Z,7.08
2024-04-09T23:38:20.171Z,7.02
2024-04-09T23:40:46.821Z,6.99
2024-04-09T23:43:13.489Z,6.97
2024-04-09T23:45:40.124Z,7.00
2024-04-09T23:48:07.798Z,7.00
2024-04-09T23:50:34.810Z,7.01
2024-04-09T23:53:01.583Z,7.14
2024-04-09T23:55:28.497Z,7.22
2024-04-09T23:57:55.100Z,7.21
